Time;durP1;ratioP1;P1;durP2;ratioP2;P2;SDS_P1;SDS_P2;PMS_P1;PMS_P2;Temp;Humidity;BMP_temperature;BMP_pressure;BME280_temperature;BME280_humidity;BME280_pressure;Samples;Min_cycle;Max_cycle;Signal;HPM_P1;HPM_P2
2022/05/21 04:02:13;;;;;;;8.87;7.30;;;14.80;99.90;;;;;;5139787;23;20976;-79
2022/05/21 04:04:40;;;;;;;7.50;6.70;;;14.80;99.90;;;;;;4946583;29;20505;-79
2022/05/21 04:07:07;;;;;;;9.30;7.20;;;14.80;99.90;;;;;;4946713;29;20841;-79
2022/05/21 04:09:34;;;;;;;11.27;7.87;;;14.70;99.90;;;;;;4947078;29;20461;-79
2022/05/21 04:12:03;;;;;;;8.80;6.60;;;14.60;99.90;;;;;;4946887;28;20852;-78
2022/05/21 04:14:30;;;;;;;8.40;7.10;;;14.60;99.90;;;;;;4948235;28;20949;-78
2022/05/21 04:16:58;;;;;;;9.80;7.13;;;14.50;99.90;;;;;;4951255;29;20825;-79
2022/05/21 04:19:28;;;;;;;8.73;6.83;;;14.40;99.90;;;;;;4950660;29;20465;-79
2022/05/21 04:21:55;;;;;;;8.90;7.33;;;14.30;99.90;;;;;;4949785;28;21005;-78
2022/05/21 04:24:22;;;;;;;8.03;7.23;;;14.30;99.90;;;;;;4950332;29;20498;-79
2022/05/21 04:26:49;;;;;;;11.87;7.50;;;14.30;99.90;;;;;;4950883;29;20476;-79
2022/05/21 04:29:16;;;;;;;9.23;6.70;;;14.30;99.90;;;;;;4950594;29;20995;-79
2022/05/21 04:31:44;;;;;;;8.80;6.83;;;14.30;99.90;;;;;;4950201;28;21264;-79
2022/05/21 04:34:11;;;;;;;8.87;7.50;;;14.30;99.90;;;;;;4949754;29;20468;-80
2022/05/21 04:36:39;;;;;;;9.23;7.90;;;14.30;99.90;;;;;;4950522;29;20457;-79
2022/05/21 04:39:07;;;;;;;9.67;7.67;;;14.20;99.90;;;;;;4950821;29;20491;-78
2022/05/21 04:41:34;;;;;;;9.50;7.50;;;14.20;99.90;;;;;;4950176;28;20847;-78
2022/05/21 04:44:02;;;;;;;9.93;6.57;;;14.20;99.90;;;;;;4949655;29;21085;-79
2022/05/21 04:46:31;;;;;;;9.70;7.80;;;14.20;99.90;;;;;;4950124;29;20563;-79
2022/05/21 04:48:58;;;;;;;9.27;6.83;;;14.10;99.90;;;;;;4950506;29;20457;-79
2022/05/21 04:51:24;;;;;;;9.37;7.63;;;14.10;99.90;;;;;;4950204;28;20489;-79
2022/05/21 04:53:53;;;;;;;8.67;7.73;;;14.10;99.90;;;;;;4950170;29;20464;-79
2022/05/21 04:56:20;;;;;;;9.60;8.60;;;14.10;99.90;;;;;;4949618;29;20904;-78
2022/05/21 04:58:47;;;;;;;8.30;7.53;;;14.10;99.90;;;;;;4950183;29;20985;-79
2022/05/21 05:01:14;;;;;;;10.13;8.00;;;14.10;99.90;;;;;;4949998;28;20493;-78
2022/05/21 05:03:41;;;;;;;9.17;7.60;;;14.10;99.90;;;;;;4950261;29;20595;-79
2022/05/21 05:06:08;;;;;;;11.60;8.53;;;14.10;99.90;;;;;;4949569;29;20489;-79
2022/05/21 05:08:36;;;;;;;12.17;8.57;;;14.10;99.90;;;;;;4950087;29;21178;-78
2022/05/21 05:11:04;;;;;;;9.40;8.00;;;14.10;99.90;;;;;;4949995;28;20477;-78
2022/05/21 05:13:31;;;;;;;9.27;7.97;;;14.10;99.90;;;;;;4953114;29;20471;-80
2022/05/21 05:15:59;;;;;;;10.60;7.90;;;14.10;99.90;;;;;;4963259;29;20501;-80
2022/05/21 05:18:30;;;;;;;8.07;7.27;;;14.10;99.90;;;;;;4964247;29;20871;-80
2022/05/21 05:20:57;;;;;;;9.20;8.23;;;14.20;99.90;;;;;;4963541;28;20492;-80
2022/05/21 05:23:24;;;;;;;8.87;7.97;;;14.10;99.90;;;;;;4963595;29;20504;-80
2022/05/21 05:25:52;;;;;;;9.87;8.20;;;14.20;99.90;;;;;;4962296;28;20490;-80
2022/05/21 05:28:23;;;;;;;7.87;7.13;;;14.10;99.90;;;;;;4964509;29;20513;-80
2022/05/21 05:30:51;;;;;;;9.00;7.83;;;14.10;99.90;;;;;;4962320;28;20509;-80
2022/05/21 05:33:18;;;;;;;8.70;7.80;;;14.20;99.90;;;;;;4961816;29;20472;-80
2022/05/21 05:35:48;;;;;;;7.83;6.83;;;14.10;99.90;;;;;;4959271;29;20454;-80
2022/05/21 05:38:16;;;;;;;9.53;7.73;;;14.20;99.90;;;;;;4966150;29;20457;-80
2022/05/21 05:40:46;;;;;;;7.77;6.90;;;14.20;99.90;;;;;;4964972;28;20482;-80
2022/05/21 05:43:13;;;;;;;11.70;7.63;;;14.10;99.90;;;;;;4965683;29;20540;-80
2022/05/21 05:45:42;;;;;;;7.93;7.13;;;14.10;99.90;;;;;;4965770;29;20500;-80
2022/05/21 05:48:09;;;;;;;8.13;6.80;;;14.20;99.90;;;;;;4965874;29;20454;-81
2022/05/21 05:50:36;;;;;;;9.13;7.63;;;14.10;99.90;;;;;;4965471;28;20477;-79
2022/05/21 05:53:04;;;;;;;8.10;6.90;;;14.20;99.90;;;;;;4965610;29;20552;-80
2022/05/21 05:55:32;;;;;;;6.53;5.90;;;14.20;99.90;;;;;;4966055;29;20489;-80
2022/05/21 05:57:59;;;;;;;6.63;5.93;;;14.20;99.90;;;;;;4963547;29;20892;-80
2022/05/21 06:00:26;;;;;;;6.20;5.60;;;14.20;99.90;;;;;;4961973;28;20501;-80
2022/05/21 06:03:01;;;;;;;9.80;6.60;;;14.30;99.90;;;;;;4959878;29;21066;-81
2022/05/21 06:05:30;;;;;;;9.97;5.73;;;14.30;99.90;;;;;;4962411;29;20532;-80
2022/05/21 06:07:59;;;;;;;6.60;4.67;;;14.30;99.90;;;;;;4961722;29;20498;-80
2022/05/21 06:10:28;;;;;;;5.87;5.27;;;14.40;99.90;;;;;;4961563;28;20461;-81
2022/05/21 06:12:56;;;;;;;5.30;4.80;;;14.40;99.90;;;;;;4958484;29;20458;-80
2022/05/21 06:15:23;;;;;;;6.67;5.47;;;14.40;99.90;;;;;;4956837;29;20489;-80
2022/05/21 06:17:51;;;;;;;12.00;5.80;;;14.40;99.90;;;;;;4953038;29;20462;-82
2022/05/21 06:20:23;;;;;;;6.00;4.97;;;14.40;99.90;;;;;;4950342;28;20462;-82
2022/05/21 06:22:51;;;;;;;4.43;4.03;;;14.50;99.90;;;;;;4950542;29;20456;-80
2022/05/21 06:25:22;;;;;;;4.37;3.80;;;14.50;99.90;;;;;;4951141;29;20497;-80
2022/05/21 06:27:50;;;;;;;9.47;4.63;;;14.50;99.90;;;;;;4951107;29;20470;-80
2022/05/21 06:30:19;;;;;;;4.30;3.90;;;14.60;99.90;;;;;;4951891;28;20466;-81
2022/05/21 06:32:46;;;;;;;5.47;4.10;;;14.60;99.90;;;;;;4952556;29;20461;-82
2022/05/21 06:35:15;;;;;;;5.20;4.37;;;14.60;99.90;;;;;;4951499;29;20548;-81
2022/05/21 06:37:43;;;;;;;4.37;3.53;;;14.70;99.90;;;;;;4951113;28;20818;-68
2022/05/21 06:40:12;;;;;;;9.07;4.43;;;14.70;99.90;;;;;;4946252;29;20537;-69
2022/05/21 06:42:40;;;;;;;5.37;4.40;;;14.80;99.90;;;;;;4947205;29;20469;-69
2022/05/21 06:45:08;;;;;;;5.23;4.73;;;14.80;99.90;;;;;;4946965;29;20544;-67
2022/05/21 06:47:36;;;;;;;10.67;5.57;;;14.80;99.90;;;;;;4948272;29;20457;-66
2022/05/21 06:50:04;;;;;;;6.47;4.90;;;14.90;99.90;;;;;;4948639;29;20468;-68
2022/05/21 06:52:32;;;;;;;5.43;4.50;;;14.90;99.90;;;;;;4948473;28;20564;-67
2022/05/21 06:55:01;;;;;;;6.73;4.40;;;14.90;99.90;;;;;;4947708;29;20465;-68
2022/05/21 06:57:30;;;;;;;4.87;4.43;;;15.00;99.90;;;;;;4948168;29;20461;-68
2022/05/21 06:59:57;;;;;;;5.07;4.63;;;15.00;99.90;;;;;;4947939;29;20524;-67
2022/05/21 07:02:25;;;;;;;5.63;4.70;;;15.10;99.90;;;;;;4947913;28;20584;-74
2022/05/21 07:07:43;;;;;;;7.13;4.43;;;15.20;99.90;;;;;;4948135;29;20444;-67
2022/05/21 07:10:18;;;;;;;11.63;5.00;;;15.30;99.90;;;;;;4948030;29;20552;-69
2022/05/21 07:12:44;;;;;;;5.13;4.43;;;15.30;99.90;;;;;;4948426;29;20523;-68
2022/05/21 07:15:12;;;;;;;8.50;5.30;;;15.40;99.90;;;;;;4947297;29;20497;-67
2022/05/21 07:17:39;;;;;;;4.10;3.70;;;15.50;99.90;;;;;;4948000;29;20461;-68
2022/05/21 07:20:10;;;;;;;4.50;3.07;;;15.50;99.90;;;;;;4947845;29;20462;-68
2022/05/21 07:22:40;;;;;;;5.60;4.23;;;15.50;99.90;;;;;;4948143;29;20462;-67
2022/05/21 07:25:13;;;;;;;3.70;3.30;;;15.60;99.90;;;;;;4947108;29;20495;-70
2022/05/21 07:27:40;;;;;;;3.80;3.40;;;15.60;99.90;;;;;;4947554;29;20465;-67
2022/05/21 07:30:08;;;;;;;6.87;3.53;;;15.60;99.90;;;;;;4947806;29;20466;-70
2022/05/21 07:32:35;;;;;;;3.80;3.20;;;15.70;99.90;;;;;;4947733;28;20477;-68
2022/05/21 07:35:05;;;;;;;4.03;2.77;;;15.80;99.90;;;;;;4946982;29;20489;-68
2022/05/21 07:37:32;;;;;;;4.43;2.90;;;15.80;99.90;;;;;;4947543;29;20542;-67
2022/05/21 07:39:59;;;;;;;3.43;2.90;;;15.80;99.90;;;;;;4947390;29;20903;-69
2022/05/21 07:42:28;;;;;;;5.83;2.90;;;15.90;99.90;;;;;;4947546;28;20481;-68
2022/05/21 07:44:54;;;;;;;3.90;2.43;;;16.00;99.90;;;;;;4947003;29;20493;-68
2022/05/21 07:47:24;;;;;;;3.70;2.63;;;16.00;99.90;;;;;;4947234;28;20926;-69
2022/05/21 07:49:51;;;;;;;4.67;2.90;;;16.10;99.90;;;;;;4947330;29;20489;-68
2022/05/21 07:52:18;;;;;;;4.10;2.00;;;16.10;99.90;;;;;;4935829;28;20483;-68
2022/05/21 07:54:45;;;;;;;6.00;2.47;;;16.10;99.90;;;;;;4927956;29;20463;-69
2022/05/21 07:57:12;;;;;;;4.53;2.30;;;16.20;99.90;;;;;;4928588;29;20469;-68
2022/05/21 07:59:40;;;;;;;7.43;2.50;;;16.30;99.90;;;;;;4928380;29;20541;-68
2022/05/21 08:02:08;;;;;;;5.33;2.50;;;16.50;99.90;;;;;;4927752;29;20486;-68
2022/05/21 08:04:36;;;;;;;3.40;2.30;;;16.50;99.90;;;;;;4927193;29;20536;-68
2022/05/21 08:07:03;;;;;;;7.50;2.73;;;16.60;99.90;;;;;;4928530;29;20467;-68
2022/05/21 08:09:30;;;;;;;4.27;2.07;;;16.70;99.90;;;;;;4928295;29;21034;-68
2022/05/21 08:11:56;;;;;;;6.17;1.90;;;16.70;99.90;;;;;;4928126;29;20486;-69
2022/05/21 08:14:24;;;;;;;5.27;1.80;;;16.80;99.90;;;;;;4927680;29;20904;-68
2022/05/21 08:16:52;;;;;;;4.60;2.20;;;16.90;99.90;;;;;;4928195;29;20465;-69
2022/05/21 08:19:19;;;;;;;4.50;1.77;;;17.00;99.90;;;;;;4928354;29;20463;-68
2022/05/21 08:21:45;;;;;;;3.63;2.33;;;17.00;99.90;;;;;;4928115;29;20474;-68
2022/05/21 08:26:57;;;;;;;3.33;1.80;;;17.20;99.90;;;;;;4928275;29;20482;-68
2022/05/21 08:29:25;;;;;;;3.30;1.90;;;17.30;99.90;;;;;;4927735;29;20948;-68
2022/05/21 08:31:54;;;;;;;5.10;1.97;;;17.40;99.90;;;;;;4927894;29;21278;-68
2022/05/21 08:34:21;;;;;;;2.90;1.60;;;17.40;99.90;;;;;;4927425;29;20462;-70
2022/05/21 08:36:48;;;;;;;2.57;1.70;;;17.60;99.90;;;;;;4928794;29;20466;-69
2022/05/21 08:39:15;;;;;;;5.77;2.30;;;17.60;99.90;;;;;;4926698;29;20474;-69
2022/05/21 08:41:46;;;;;;;4.83;1.97;;;17.70;99.90;;;;;;4926861;29;20866;-73
2022/05/21 08:44:24;;;;;;;2.00;1.80;;;17.80;99.90;;;;;;4927139;29;20463;-75
2022/05/21 08:47:02;;;;;;;3.50;1.63;;;17.90;99.90;;;;;;4927665;29;20981;-72
2022/05/21 08:49:34;;;;;;;2.63;1.33;;;18.00;99.90;;;;;;4927637;29;20458;-68
2022/05/21 08:52:15;;;;;;;1.60;1.50;;;18.10;99.90;;;;;;4927822;29;20482;-68
2022/05/21 08:54:45;;;;;;;3.37;1.27;;;18.20;99.90;;;;;;4927218;29;20470;-69
2022/05/21 08:57:16;;;;;;;2.07;1.10;;;18.30;99.90;;;;;;4928104;29;20454;-68
2022/05/21 08:59:49;;;;;;;1.80;1.40;;;18.30;99.90;;;;;;4928528;29;20458;-68
2022/05/21 09:02:25;;;;;;;4.13;1.30;;;18.40;99.90;;;;;;4930987;29;21281;-68
2022/05/21 09:04:52;;;;;;;4.50;1.50;;;18.40;99.90;;;;;;4930605;29;20493;-68
2022/05/21 09:07:23;;;;;;;2.90;1.50;;;18.50;99.90;;;;;;4931772;29;20474;-68
2022/05/21 09:10:06;;;;;;;2.60;1.40;;;18.60;99.90;;;;;;4931443;29;20472;-70
2022/05/21 09:12:42;;;;;;;3.90;1.50;;;18.70;99.90;;;;;;4930892;29;21005;-68
2022/05/21 09:16:54;;;;;;;2.87;1.23;;;18.90;99.90;;;;;;4930495;29;20894;-68
2022/05/21 09:18:02;;;;;;;2.90;1.40;;;19.00;99.90;;;;;;4930723;29;20963;-67
2022/05/21 09:20:34;;;;;;;2.20;1.20;;;19.10;99.90;;;;;;4930871;29;20476;-68
2022/05/21 09:23:02;;;;;;;2.57;1.50;;;19.10;99.90;;;;;;4930941;29;20468;-66
2022/05/21 09:25:29;;;;;;;1.87;1.20;;;19.30;99.90;;;;;;4930004;29;20561;-68
2022/05/21 09:28:04;;;;;;;4.93;1.57;;;19.30;99.90;;;;;;4930788;29;20541;-71
2022/05/21 09:30:33;;;;;;;2.90;1.47;;;19.40;99.90;;;;;;4930865;29;20505;-67
2022/05/21 09:33:21;;;;;;;3.80;1.57;;;19.50;99.90;;;;;;4930877;29;20467;-67
2022/05/21 09:35:54;;;;;;;5.57;1.40;;;19.50;99.90;;;;;;4929251;29;20895;-70
2022/05/21 09:38:24;;;;;;;3.63;1.63;;;19.50;99.90;;;;;;4930218;29;20468;-84
2022/05/21 09:41:03;;;;;;;2.23;1.30;;;19.50;99.90;;;;;;4933037;29;20493;-84
2022/05/21 09:46:19;;;;;;;3.90;1.30;;;19.50;99.90;;;;;;4933299;29;21370;-83
2022/05/21 09:48:48;;;;;;;3.97;1.97;;;19.50;99.90;;;;;;4934531;29;20501;-84
2022/05/21 09:51:29;;;;;;;2.33;1.30;;;19.80;99.90;;;;;;4933616;29;20482;-84
2022/05/21 09:53:57;;;;;;;1.77;1.07;;;19.90;99.90;;;;;;4934328;29;20458;-88
2022/05/21 09:56:26;;;;;;;3.00;1.50;;;20.00;99.90;;;;;;4934136;29;20467;-83
2022/05/21 09:59:11;;;;;;;1.97;1.50;;;20.10;99.90;;;;;;4933245;29;20522;-84
2022/05/21 10:01:40;;;;;;;3.67;1.40;;;20.10;99.90;;;;;;4933083;29;20494;-85
2022/05/21 10:04:17;;;;;;;1.93;1.13;;;20.20;99.90;;;;;;4933599;29;20476;-84
2022/05/21 10:06:49;;;;;;;2.27;1.20;;;20.30;99.90;;;;;;4934255;29;20864;-86
2022/05/21 10:12:10;;;;;;;2.03;1.20;;;20.40;99.90;;;;;;4936123;29;20514;-83
2022/05/21 10:14:42;;;;;;;2.03;1.37;;;20.40;99.90;;;;;;4936180;29;20459;-81
2022/05/21 10:17:13;;;;;;;2.20;1.20;;;20.40;99.90;;;;;;4935866;29;20453;-81
2022/05/21 10:19:47;;;;;;;1.70;1.23;;;20.50;99.90;;;;;;4935743;29;20938;-81
2022/05/21 10:22:21;;;;;;;1.50;1.40;;;20.50;99.90;;;;;;4932545;29;20477;-78
2022/05/21 10:24:58;;;;;;;4.70;1.37;;;20.60;99.90;;;;;;4933068;29;20450;-79
2022/05/21 10:27:53;;;;;;;2.90;1.30;;;20.50;99.90;;;;;;4933553;29;20533;-82
2022/05/21 10:30:24;;;;;;;2.20;1.63;;;20.30;99.90;;;;;;4927901;29;20466;-84
2022/05/21 10:33:29;;;;;;;1.70;1.20;;;20.20;99.90;;;;;;4939083;29;20538;-82
2022/05/21 10:36:04;;;;;;;4.50;1.60;;;20.00;99.90;;;;;;4945726;29;20485;-83
2022/05/21 10:38:51;;;;;;;1.90;1.40;;;19.90;99.90;;;;;;4940534;29;20496;-80
2022/05/21 10:41:33;;;;;;;3.53;1.70;;;19.90;99.90;;;;;;4940384;29;20484;-82
2022/05/21 10:44:13;;;;;;;1.73;1.30;;;20.00;99.90;;;;;;4935802;29;20439;-70
2022/05/21 10:46:51;;;;;;;2.87;1.10;;;20.10;99.90;;;;;;4929145;29;20491;-78
2022/05/21 10:49:54;;;;;;;2.60;1.40;;;20.30;99.90;;;;;;4931662;29;20467;-80
2022/05/21 10:52:32;;;;;;;4.00;1.43;;;20.40;99.90;;;;;;4923271;29;20501;-79
2022/05/21 10:55:12;;;;;;;3.00;1.30;;;20.40;99.90;;;;;;4931594;29;20464;-79
2022/05/21 10:58:03;;;;;;;2.10;1.23;;;20.60;99.90;;;;;;4932251;29;20466;-79
2022/05/21 11:00:37;;;;;;;1.83;1.10;;;20.70;99.90;;;;;;4931635;29;20443;-78
2022/05/21 11:03:25;;;;;;;3.57;1.47;;;20.80;99.90;;;;;;4931277;29;21019;-81
2022/05/21 11:06:33;;;;;;;3.23;1.13;;;20.80;99.90;;;;;;4930270;29;20504;-79
2022/05/21 11:09:15;;;;;;;2.70;1.20;;;20.90;99.90;;;;;;4872069;29;20949;-79
2022/05/21 11:11:59;;;;;;;3.93;1.50;;;20.90;99.90;;;;;;4923451;29;20509;-80
2022/05/21 11:14:32;;;;;;;2.73;1.13;;;20.90;99.90;;;;;;4930736;29;20439;-80
2022/05/21 11:17:12;;;;;;;3.77;1.30;;;20.90;99.90;;;;;;4931864;29;20447;-80
2022/05/21 11:19:44;;;;;;;3.27;1.30;;;20.90;99.90;;;;;;4931308;29;20549;-79
2022/05/21 11:22:22;;;;;;;2.60;1.30;;;21.00;99.90;;;;;;4930011;29;20491;-84
2022/05/21 11:24:58;;;;;;;2.17;1.20;;;21.10;99.90;;;;;;4930481;29;20453;-80
2022/05/21 11:27:29;;;;;;;2.43;1.30;;;21.30;99.90;;;;;;4931167;29;20510;-78
2022/05/21 11:30:04;;;;;;;2.73;1.30;;;21.50;99.90;;;;;;4931285;29;20561;-78
2022/05/21 11:38:14;;;;;;;3.07;1.27;;;21.70;99.90;;;;;;4930166;29;20800;-79
2022/05/21 11:41:24;;;;;;;1.20;1.10;;;21.90;99.90;;;;;;4929545;29;20486;-78
2022/05/21 11:46:56;;;;;;;4.50;1.60;;;22.00;99.90;;;;;;4928774;29;20878;-78
2022/05/21 11:49:41;;;;;;;1.80;1.00;;;21.90;99.90;;;;;;4928185;29;20557;-79
2022/05/21 11:52:45;;;;;;;4.17;1.57;;;22.10;99.90;;;;;;4928163;29;20482;-81
2022/05/21 11:55:19;;;;;;;1.77;1.30;;;22.10;99.90;;;;;;4926655;29;20485;-81
2022/05/21 11:57:49;;;;;;;3.20;1.10;;;22.10;99.90;;;;;;4928176;29;20492;-80
2022/05/21 12:00:49;;;;;;;3.37;2.17;;;22.00;99.90;;;;;;4927465;29;20462;-80
2022/05/21 12:03:53;;;;;;;4.40;1.53;;;22.00;99.90;;;;;;4928587;29;21136;-78
2022/05/21 12:06:33;;;;;;;5.40;1.33;;;22.00;99.90;;;;;;4927626;29;20512;-77
2022/05/21 12:09:22;;;;;;;3.97;1.40;;;22.00;99.90;;;;;;4929286;29;20446;-77
2022/05/21 12:11:49;;;;;;;5.40;1.23;;;22.20;99.90;;;;;;4928459;29;20494;-77
2022/05/21 12:14:25;;;;;;;3.03;1.30;;;22.10;99.90;;;;;;4929779;29;20514;-80
2022/05/21 12:16:58;;;;;;;3.70;1.33;;;22.00;99.90;;;;;;4932632;29;20473;-82
2022/05/21 12:20:07;;;;;;;3.67;2.20;;;22.00;99.90;;;;;;4931129;29;21191;-79
2022/05/21 12:22:40;;;;;;;2.50;1.90;;;22.10;99.90;;;;;;4933301;29;20516;-80
2022/05/21 12:25:13;;;;;;;4.17;1.37;;;22.20;99.90;;;;;;4928416;29;20466;-73
2022/05/21 12:27:51;;;;;;;2.20;1.37;;;22.40;99.90;;;;;;4927752;29;20494;-74
2022/05/21 12:30:26;;;;;;;1.53;1.00;;;22.30;99.90;;;;;;4927733;29;20990;-74
2022/05/21 12:32:53;;;;;;;3.70;1.50;;;22.20;99.90;;;;;;4927959;29;20462;-74
2022/05/21 12:35:48;;;;;;;3.93;1.30;;;22.30;99.90;;;;;;4928359;29;20485;-74
2022/05/21 12:38:26;;;;;;;2.83;1.47;;;22.40;99.90;;;;;;4917944;29;20470;-74
2022/05/21 12:41:03;;;;;;;2.60;1.27;;;22.40;99.90;;;;;;4931937;29;20513;-77
2022/05/21 12:43:42;;;;;;;6.17;1.70;;;22.60;99.90;;;;;;4932524;29;20502;-78
2022/05/21 12:46:21;;;;;;;2.87;1.17;;;22.70;99.90;;;;;;4931445;29;20501;-75
2022/05/21 12:48:49;;;;;;;2.63;1.33;;;22.60;99.90;;;;;;4932308;29;20493;-70
2022/05/21 12:51:29;;;;;;;2.47;1.23;;;22.60;99.90;;;;;;4931380;29;20504;-70
2022/05/21 12:53:56;;;;;;;2.13;1.30;;;22.50;99.90;;;;;;4931358;29;20474;-69
2022/05/21 12:56:27;;;;;;;2.97;1.20;;;22.60;99.90;;;;;;4931021;29;20458;-69
2022/05/21 12:59:09;;;;;;;4.27;1.30;;;22.60;99.90;;;;;;4931047;29;20464;-70
2022/05/21 13:01:43;;;;;;;2.80;1.47;;;22.60;99.90;;;;;;4930960;29;20535;-71
2022/05/21 13:04:24;;;;;;;12.13;2.07;;;22.70;99.90;;;;;;4930711;29;20488;-70
2022/05/21 13:06:56;;;;;;;2.60;1.33;;;22.60;99.90;;;;;;4931165;29;20497;-68
2022/05/21 13:09:23;;;;;;;3.03;1.20;;;22.60;99.90;;;;;;4931325;29;20470;-71
2022/05/21 13:11:50;;;;;;;3.17;1.40;;;22.80;99.90;;;;;;4930995;29;21210;-69
2022/05/21 13:14:27;;;;;;;4.40;1.10;;;22.80;99.90;;;;;;4930219;29;20502;-69
2022/05/21 13:16:58;;;;;;;2.80;1.33;;;22.90;99.90;;;;;;4929332;29;20540;-70
2022/05/21 13:19:50;;;;;;;4.37;1.43;;;23.00;99.90;;;;;;4928200;29;20465;-70
2022/05/21 13:22:25;;;;;;;2.00;1.03;;;23.00;99.90;;;;;;4931198;29;20494;-70
2022/05/21 13:25:00;;;;;;;5.77;1.47;;;23.00;99.90;;;;;;4930160;29;20453;-70
2022/05/21 13:27:27;;;;;;;2.10;1.53;;;22.90;99.90;;;;;;4930449;29;20528;-70
2022/05/21 13:29:55;;;;;;;8.87;2.03;;;22.90;99.90;;;;;;4930817;29;20486;-70
2022/05/21 13:32:26;;;;;;;5.63;1.30;;;22.90;99.90;;;;;;4930642;29;20890;-70
2022/05/21 13:34:54;;;;;;;3.10;1.30;;;22.90;99.90;;;;;;4930181;29;20458;-71
2022/05/21 13:37:28;;;;;;;17.47;2.20;;;22.90;99.90;;;;;;4930285;29;20554;-71
2022/05/21 13:40:03;;;;;;;5.67;1.53;;;23.00;99.90;;;;;;4930462;29;20458;-70
2022/05/21 13:42:31;;;;;;;3.80;1.53;;;23.00;99.90;;;;;;4930497;29;20484;-67
2022/05/21 13:45:07;;;;;;;2.77;1.20;;;22.10;99.90;;;;;;4928860;29;20504;-67
2022/05/21 13:47:41;;;;;;;2.37;1.37;;;21.70;99.90;;;;;;4930224;29;20505;-74
2022/05/21 13:50:10;;;;;;;5.87;1.90;;;21.30;99.90;;;;;;4930790;29;20505;-70
2022/05/21 13:52:38;;;;;;;8.10;2.10;;;21.20;99.90;;;;;;4930388;29;20488;-74
